Time;durP1;ratioP1;P1;durP2;ratioP2;P2;SDS_P1;SDS_P2;PMS_P1;PMS_P2;Temp;Humidity;BMP_temperature;BMP_pressure;BME280_temperature;BME280_humidity;BME280_pressure;Samples;Min_cycle;Max_cycle;Signal;HPM_P1;HPM_P2
2021/07/22 00:00:58;;;;;;;14.35;9.40;;;;;;;17.78;65.83;101222.02;1646322;87;21020;-74
2021/07/22 00:03:24;;;;;;;15.28;8.88;;;;;;;17.74;65.92;101215.34;1646458;87;21020;-75
2021/07/22 00:05:50;;;;;;;14.28;8.95;;;;;;;17.71;66.02;101218.44;1658892;86;21069;-74
2021/07/22 00:08:16;;;;;;;14.93;7.78;;;;;;;17.72;66.10;101214.72;1646377;87;21008;-74
2021/07/22 00:10:42;;;;;;;11.00;8.08;;;;;;;17.70;66.13;101214.06;1658986;86;21033;-74
2021/07/22 00:13:08;;;;;;;16.30;9.80;;;;;;;17.72;66.17;101214.20;1646321;85;21543;-74
2021/07/22 00:15:34;;;;;;;13.80;9.28;;;;;;;17.72;66.17;101212.86;1659015;86;21020;-74
2021/07/22 00:18:01;;;;;;;16.15;9.93;;;;;;;17.71;66.15;101213.04;1645981;87;21547;-74
2021/07/22 00:20:27;;;;;;;17.52;10.88;;;;;;;17.70;66.19;101218.11;1646082;87;21041;-74
2021/07/22 00:22:53;;;;;;;16.00;9.60;;;;;;;17.68;66.19;101218.83;1658638;86;21084;-74
2021/07/22 00:25:19;;;;;;;15.55;10.25;;;;;;;17.67;66.22;101219.34;1646267;87;21537;-74
2021/07/22 00:27:45;;;;;;;18.23;10.58;;;;;;;17.67;66.23;101214.45;1645904;86;21061;-74
2021/07/22 00:30:13;;;;;;;21.93;9.83;;;;;;;17.68;66.25;101216.14;1657866;85;21138;-74
2021/07/22 00:32:39;;;;;;;15.50;9.65;;;;;;;17.69;66.25;101215.11;1638925;87;21802;-74
2021/07/22 00:35:06;;;;;;;16.90;11.78;;;;;;;17.68;66.24;101216.14;1646106;86;21051;-74
2021/07/22 00:37:32;;;;;;;18.17;10.50;;;;;;;17.70;66.24;101214.90;1639004;87;21070;-74
2021/07/22 00:39:58;;;;;;;16.87;8.95;;;;;;;17.70;66.22;101212.20;1653240;86;21523;-74
2021/07/22 00:42:24;;;;;;;16.27;9.75;;;;;;;17.70;66.20;101214.06;1666471;86;21802;-74
2021/07/22 00:44:50;;;;;;;17.92;9.63;;;;;;;17.68;66.25;101214.78;1633341;87;21114;-74
2021/07/22 00:47:16;;;;;;;17.82;10.08;;;;;;;17.66;66.34;101212.81;1626972;86;21110;-75
2021/07/22 00:49:44;;;;;;;15.68;10.18;;;;;;;17.64;66.45;101211.64;1666567;86;21077;-75
2021/07/22 00:52:10;;;;;;;17.17;10.38;;;;;;;17.62;66.58;101203.44;1666474;86;21060;-74
2021/07/22 00:54:36;;;;;;;14.95;10.08;;;;;;;17.60;66.68;101212.23;1623764;87;21172;-75
2021/07/22 00:57:03;;;;;;;16.82;10.03;;;;;;;17.58;66.83;101205.70;1656869;86;21006;-75
2021/07/22 00:59:29;;;;;;;14.00;9.20;;;;;;;17.56;66.91;101211.78;1666657;85;21020;-75
2021/07/22 01:01:55;;;;;;;14.47;9.38;;;;;;;17.54;67.04;101207.59;1664471;86;21085;-75
2021/07/22 01:04:21;;;;;;;13.03;9.88;;;;;;;17.54;67.15;101211.63;1666651;85;21068;-74
2021/07/22 01:06:47;;;;;;;16.93;9.85;;;;;;;17.52;67.25;101203.75;1664491;86;21165;-74
2021/07/22 01:09:13;;;;;;;15.00;10.28;;;;;;;17.51;67.36;101205.28;1666475;86;21525;-74
2021/07/22 01:11:39;;;;;;;14.20;10.38;;;;;;;17.52;67.44;101203.75;1664736;86;21022;-74
2021/07/22 01:14:05;;;;;;;16.62;9.65;;;;;;;17.53;67.53;101204.56;1666550;86;21059;-74
2021/07/22 01:16:31;;;;;;;16.10;9.48;;;;;;;17.54;67.61;101206.23;1666773;85;21054;-75
2021/07/22 01:18:57;;;;;;;14.03;8.78;;;;;;;17.50;67.67;101205.80;1666448;86;21056;-75
2021/07/22 01:21:24;;;;;;;13.28;8.15;;;;;;;17.46;67.78;101208.05;1664088;86;21126;-74
2021/07/22 01:23:51;;;;;;;12.47;7.95;;;;;;;17.42;67.87;101209.47;1666611;84;21040;-74
2021/07/22 01:26:17;;;;;;;14.35;8.60;;;;;;;17.36;67.97;101208.90;1639695;87;21077;-74
2021/07/22 01:28:43;;;;;;;13.22;9.53;;;;;;;17.32;68.09;101203.57;1660361;85;21646;-74
2021/07/22 01:31:09;;;;;;;14.87;8.98;;;;;;;17.32;68.17;101205.42;1651102;84;21823;-74
2021/07/22 01:33:35;;;;;;;13.08;9.80;;;;;;;17.28;68.24;101198.23;1665734;86;21505;-74
2021/07/22 01:36:01;;;;;;;17.10;10.28;;;;;;;17.31;68.31;101201.09;1617083;87;21482;-74
2021/07/22 01:38:27;;;;;;;16.93;9.50;;;;;;;17.33;68.34;101199.86;1624771;88;21622;-74
2021/07/22 01:40:53;;;;;;;15.98;9.23;;;;;;;17.34;68.38;101198.84;1664567;85;21079;-74
2021/07/22 01:43:19;;;;;;;16.27;8.18;;;;;;;17.34;68.43;101200.19;1666355;85;21141;-74
2021/07/22 01:45:45;;;;;;;13.65;9.05;;;;;;;17.35;68.49;101200.98;1666348;85;21032;-74
2021/07/22 01:48:12;;;;;;;14.23;9.53;;;;;;;17.35;68.51;101196.95;1666474;86;21074;-74
2021/07/22 01:50:38;;;;;;;18.05;9.75;;;;;;;17.32;68.52;101198.18;1666299;86;21080;-74
2021/07/22 01:53:04;;;;;;;16.10;8.78;;;;;;;17.29;68.54;101192.34;1628420;87;21042;-74
2021/07/22 01:55:31;;;;;;;16.90;10.80;;;;;;;17.27;68.61;101199.80;1632926;86;21308;-74
2021/07/22 01:58:00;;;;;;;17.25;9.38;;;;;;;17.23;68.66;101193.96;1667008;84;21084;-74
2021/07/22 02:00:26;;;;;;;16.07;10.65;;;;;;;17.20;68.70;101198.40;1626859;87;21522;-74
2021/07/22 02:02:52;;;;;;;17.80;9.75;;;;;;;17.16;68.77;101189.02;1625189;88;21076;-74
2021/07/22 02:05:18;;;;;;;13.08;8.75;;;;;;;17.18;68.81;101193.70;1661044;86;21509;-74
2021/07/22 02:07:44;;;;;;;9.98;8.08;;;;;;;17.20;68.87;101190.82;1667022;86;21581;-74
2021/07/22 02:10:10;;;;;;;13.75;8.80;;;;;;;17.20;68.90;101197.56;1667187;86;21582;-74
2021/07/22 02:12:36;;;;;;;16.35;9.30;;;;;;;17.15;68.96;101196.78;1667031;86;21054;-74
2021/07/22 02:15:04;;;;;;;15.08;10.10;;;;;;;17.15;69.01;101199.48;1667066;85;21024;-74
2021/07/22 02:17:30;;;;;;;18.73;13.10;;;;;;;17.12;69.07;101197.17;1647671;85;21582;-74
2021/07/22 02:19:56;;;;;;;19.65;14.98;;;;;;;17.09;69.16;101197.56;1667021;85;21515;-74
2021/07/22 02:22:22;;;;;;;20.20;15.53;;;;;;;17.07;69.26;101198.76;1623358;87;21050;-74
2021/07/22 02:24:48;;;;;;;20.50;15.28;;;;;;;17.05;69.33;101205.70;1650104;86;21031;-74
2021/07/22 02:27:14;;;;;;;20.37;14.95;;;;;;;17.07;69.39;101203.64;1666976;86;21035;-74
2021/07/22 02:29:40;;;;;;;18.25;13.20;;;;;;;17.09;69.45;101204.30;1624277;87;21026;-74
2021/07/22 02:32:08;;;;;;;17.00;10.75;;;;;;;17.06;69.50;101204.69;1614477;88;21091;-74
2021/07/22 02:34:34;;;;;;;14.38;9.48;;;;;;;17.03;69.57;101213.13;1650455;86;21010;-74
2021/07/22 02:37:00;;;;;;;11.70;9.00;;;;;;;16.98;69.62;101205.64;1655853;86;21075;-74
2021/07/22 02:39:26;;;;;;;11.88;9.13;;;;;;;17.00;69.70;101205.44;1668865;86;21103;-74
2021/07/22 02:41:52;;;;;;;18.67;10.70;;;;;;;17.04;69.74;101213.97;1655699;86;21523;-74
2021/07/22 02:44:18;;;;;;;16.37;10.80;;;;;;;17.05;69.75;101209.75;1656216;86;21744;-74
2021/07/22 02:46:44;;;;;;;21.27;11.73;;;;;;;17.00;69.81;101198.70;1668826;86;21023;-74
2021/07/22 02:49:10;;;;;;;18.27;11.80;;;;;;;17.01;69.86;101203.07;1656260;86;21006;-74
2021/07/22 02:51:36;;;;;;;21.07;11.18;;;;;;;17.00;69.90;101198.70;1668940;86;21040;-74
2021/07/22 02:54:02;;;;;;;15.53;9.43;;;;;;;16.97;69.91;101197.23;1656174;86;21110;-74
2021/07/22 02:56:28;;;;;;;18.05;11.68;;;;;;;16.99;69.96;101197.05;1668930;86;21170;-74
2021/07/22 02:58:54;;;;;;;27.48;13.50;;;;;;;17.00;69.96;101204.09;1655452;86;21032;-75
2021/07/22 03:01:20;;;;;;;17.82;9.73;;;;;;;17.01;69.98;101196.84;1668781;86;21052;-74
2021/07/22 03:03:46;;;;;;;18.52;9.70;;;;;;;17.00;69.99;101197.34;1656032;86;21076;-74
2021/07/22 03:06:15;;;;;;;14.78;9.20;;;;;;;17.00;70.04;101202.73;1656215;86;21517;-75
2021/07/22 03:08:41;;;;;;;14.67;9.53;;;;;;;16.98;70.07;101206.16;1645971;86;21198;-74
2021/07/22 03:11:11;;;;;;;11.97;8.70;;;;;;;16.92;70.11;101204.23;1656041;86;21055;-75
2021/07/22 03:13:38;;;;;;;18.55;8.75;;;;;;;16.89;70.21;101199.20;1656389;86;21510;-74
2021/07/22 03:16:08;;;;;;;15.23;9.78;;;;;;;16.90;70.26;101198.19;1656117;86;21060;-74
2021/07/22 03:18:34;;;;;;;23.47;10.90;;;;;;;16.92;70.29;101201.54;1668935;86;21084;-74
2021/07/22 03:21:01;;;;;;;22.90;9.63;;;;;;;16.94;70.32;101199.47;1655892;86;21549;-74
2021/07/22 03:23:28;;;;;;;18.65;9.18;;;;;;;16.96;70.37;101194.71;1655768;85;21016;-75
2021/07/22 03:25:54;;;;;;;21.87;11.08;;;;;;;16.98;70.39;101200.77;1668985;86;21065;-75
2021/07/22 03:28:20;;;;;;;20.43;10.60;;;;;;;17.01;70.42;101203.07;1656314;86;21575;-74
2021/07/22 03:30:46;;;;;;;17.02;10.03;;;;;;;17.01;70.46;101201.72;1667826;86;21508;-75
2021/07/22 03:33:13;;;;;;;35.55;11.10;;;;;;;17.01;70.48;101200.88;1676616;85;22055;-75
2021/07/22 03:35:41;;;;;;;18.52;8.93;;;;;;;16.99;70.54;101197.05;1652738;85;21018;-74
2021/07/22 03:38:07;;;;;;;19.60;9.40;;;;;;;16.97;70.59;101199.92;1676976;85;21019;-75
2021/07/22 03:40:33;;;;;;;14.13;8.78;;;;;;;16.95;70.63;101197.11;1631082;87;21085;-75
2021/07/22 03:42:59;;;;;;;14.68;9.08;;;;;;;16.95;70.69;101201.15;1669813;85;21623;-75
2021/07/22 03:45:26;;;;;;;13.70;8.95;;;;;;;16.92;70.75;101194.80;1676973;85;21642;-75
2021/07/22 03:47:52;;;;;;;12.60;8.73;;;;;;;16.91;70.80;101197.17;1676918;85;21481;-75
2021/07/22 03:50:18;;;;;;;17.20;8.70;;;;;;;16.88;70.84;101194.86;1641267;87;21544;-74
2021/07/22 03:52:44;;;;;;;13.93;9.10;;;;;;;16.85;70.90;101200.63;1669739;85;21095;-75
2021/07/22 03:55:11;;;;;;;11.85;8.88;;;;;;;16.81;70.94;101203.38;1676265;85;21046;-75
2021/07/22 03:57:37;;;;;;;11.45;8.33;;;;;;;16.80;71.03;101201.70;1676970;85;21143;-75
2021/07/22 04:00:04;;;;;;;14.68;8.40;;;;;;;16.82;71.10;101200.98;1648538;87;21116;-75
2021/07/22 04:02:30;;;;;;;12.03;8.28;;;;;;;16.84;71.14;101197.61;1674710;85;21027;-74
2021/07/22 04:04:56;;;;;;;18.65;8.98;;;;;;;16.82;71.16;101201.83;1649661;87;21029;-74
2021/07/22 04:07:22;;;;;;;14.40;9.15;;;;;;;16.84;71.25;101195.76;1677066;85;21000;-74
2021/07/22 04:09:50;;;;;;;14.80;8.50;;;;;;;16.87;71.30;101197.22;1628580;87;21139;-74
2021/07/22 04:12:17;;;;;;;13.08;8.05;;;;;;;16.91;71.33;101194.47;1674078;85;21087;-74
2021/07/22 04:14:43;;;;;;;13.15;8.50;;;;;;;16.91;71.37;101198.00;1676947;85;21515;-74
2021/07/22 04:17:14;;;;;;;13.00;7.97;;;;;;;16.91;71.44;101195.82;1676946;85;21662;-74
2021/07/22 04:19:40;;;;;;;16.82;8.85;;;;;;;16.90;71.51;101198.19;1675065;85;21578;-74
2021/07/22 04:22:07;;;;;;;15.68;8.80;;;;;;;16.91;71.55;101199.35;1676726;85;21347;-74
2021/07/22 04:24:33;;;;;;;21.05;8.75;;;;;;;16.94;71.60;101199.47;1648562;87;21427;-74
2021/07/22 04:26:59;;;;;;;15.13;8.45;;;;;;;16.96;71.62;101201.45;1672026;85;21020;-74
2021/07/22 04:29:25;;;;;;;16.00;8.93;;;;;;;16.98;71.65;101200.77;1674803;85;21066;-74
2021/07/22 04:31:51;;;;;;;15.23;9.18;;;;;;;16.96;71.66;101200.10;1647789;85;21131;-74
2021/07/22 04:34:17;;;;;;;13.10;8.65;;;;;;;16.97;71.70;101197.73;1659047;86;22503;-74
2021/07/22 04:36:43;;;;;;;12.47;8.28;;;;;;;17.02;71.72;101199.36;1646607;87;21036;-74
2021/07/22 04:39:09;;;;;;;14.15;8.30;;;;;;;17.08;71.72;101200.44;1659312;86;21028;-74
2021/07/22 04:41:36;;;;;;;13.20;8.38;;;;;;;17.12;71.73;101202.56;1646488;87;21032;-74
2021/07/22 04:44:02;;;;;;;14.78;8.43;;;;;;;17.17;71.77;101190.67;1646580;85;21059;-75
2021/07/22 04:46:28;;;;;;;16.10;8.68;;;;;;;17.25;71.76;101196.45;1658914;86;21143;-74
2021/07/22 04:48:54;;;;;;;12.82;8.48;;;;;;;17.32;71.76;101191.95;1646622;86;21008;-74
2021/07/22 04:51:20;;;;;;;14.78;10.05;;;;;;;17.37;71.73;101195.75;1646460;87;21072;-74
2021/07/22 04:53:46;;;;;;;15.25;9.90;;;;;;;17.43;71.71;101194.95;1646519;86;21064;-75
2021/07/22 04:56:12;;;;;;;18.92;8.98;;;;;;;17.49;71.69;101195.52;1659231;86;21013;-74
2021/07/22 04:58:38;;;;;;;23.87;14.00;;;;;;;17.56;71.66;101192.06;1646881;86;21163;-74
2021/07/22 05:01:05;;;;;;;20.60;10.68;;;;;;;17.62;71.60;101199.39;1642932;85;21136;-74
2021/07/22 05:03:31;;;;;;;20.02;9.88;;;;;;;17.67;71.53;101203.66;1656913;86;21698;-74
2021/07/22 05:05:57;;;;;;;15.83;9.40;;;;;;;17.74;71.52;101201.84;1646600;87;21029;-74
2021/07/22 05:08:23;;;;;;;14.38;9.30;;;;;;;17.78;71.48;101200.43;1659125;86;21028;-74
2021/07/22 05:10:49;;;;;;;17.25;8.93;;;;;;;17.82;71.48;101207.11;1646584;87;21155;-75
2021/07/22 05:13:15;;;;;;;22.37;10.95;;;;;;;17.83;71.47;101210.13;1646701;87;21088;-75
2021/07/22 05:15:41;;;;;;;18.05;9.55;;;;;;;17.85;71.45;101209.41;1659444;86;21321;-75
2021/07/22 05:18:07;;;;;;;17.02;9.80;;;;;;;17.79;71.45;101202.95;1646148;87;21553;-75
2021/07/22 05:20:33;;;;;;;23.05;9.55;;;;;;;17.82;71.44;101207.11;1646509;86;21032;-74
2021/07/22 05:23:00;;;;;;;16.48;8.50;;;;;;;17.84;71.42;101202.33;1646646;86;21771;-75
2021/07/22 05:25:26;;;;;;;11.55;9.00;;;;;;;17.86;71.40;101205.69;1658816;86;21096;-75
2021/07/22 05:27:52;;;;;;;13.70;8.65;;;;;;;17.89;71.39;101199.88;1646788;85;21092;-75
2021/07/22 05:30:19;;;;;;;12.93;8.68;;;;;;;17.93;71.37;101206.56;1658854;86;21021;-75
2021/07/22 05:32:45;;;;;;;17.45;11.22;;;;;;;17.91;71.36;101208.09;1665869;86;21123;-75
2021/07/22 05:35:11;;;;;;;13.18;9.70;;;;;;;17.91;71.37;101211.30;1648777;87;21227;-75
2021/07/22 05:37:38;;;;;;;14.93;10.58;;;;;;;17.89;71.35;101216.08;1660650;86;38497;-75
2021/07/22 05:40:05;;;;;;;14.68;9.63;;;;;;;17.86;71.36;101213.78;1660833;86;20976;-75
2021/07/22 05:42:31;;;;;;;13.30;9.00;;;;;;;17.85;71.35;101216.16;1660679;86;20996;-75
2021/07/22 05:44:57;;;;;;;16.12;10.08;;;;;;;17.89;71.34;101216.08;1661188;86;21035;-75
2021/07/22 05:47:24;;;;;;;14.35;10.08;;;;;;;17.93;71.34;101215.50;1632454;87;21506;-75
2021/07/22 05:49:50;;;;;;;17.42;9.35;;;;;;;17.98;71.33;101213.02;1668172;86;21036;-75
2021/07/22 05:52:16;;;;;;;17.77;10.32;;;;;;;18.02;71.30;101216.16;1667913;85;21000;-75
2021/07/22 05:54:42;;;;;;;13.93;9.93;;;;;;;18.08;71.29;101216.73;1668063;86;21087;-75
2021/07/22 05:57:08;;;;;;;17.60;11.35;;;;;;;18.09;71.26;101218.38;1667471;86;21035;-75
2021/07/22 05:59:34;;;;;;;19.15;13.22;;;;;;;18.13;71.24;101214.77;1679695;84;21166;-75
2021/07/22 06:02:01;;;;;;;16.27;10.32;;;;;;;18.17;71.21;101211.48;1675073;84;21070;-76
2021/07/22 06:04:27;;;;;;;14.85;9.73;;;;;;;18.21;71.17;101214.61;1667748;86;21516;-75
2021/07/22 06:06:53;;;;;;;13.98;9.85;;;;;;;18.20;71.14;101215.12;1642686;84;21052;-76
2021/07/22 06:09:19;;;;;;;15.95;9.53;;;;;;;18.19;71.07;101206.70;1645535;86;21035;-76
2021/07/22 06:11:45;;;;;;;14.78;9.70;;;;;;;18.23;71.03;101213.37;1667898;85;21071;-76
2021/07/22 06:14:11;;;;;;;15.80;10.23;;;;;;;18.29;70.98;101223.39;1678065;84;21036;-76
2021/07/22 06:16:37;;;;;;;16.27;10.65;;;;;;;18.33;70.94;101217.88;1696337;84;21039;-76
2021/07/22 06:19:03;;;;;;;13.35;9.25;;;;;;;18.38;70.84;101215.42;1676858;84;21496;-76
2021/07/22 06:21:29;;;;;;;11.28;8.30;;;;;;;18.39;70.78;101214.41;1667809;86;21048;-75
2021/07/22 06:23:55;;;;;;;13.98;9.65;;;;;;;18.43;70.71;101217.53;1667546;85;21085;-75
2021/07/22 06:26:21;;;;;;;17.42;11.12;;;;;;;18.48;70.69;101211.83;1667720;84;21047;-75
2021/07/22 06:28:47;;;;;;;14.47;9.48;;;;;;;18.55;70.62;101211.05;1670899;84;21051;-75
2021/07/22 06:31:13;;;;;;;22.20;9.93;;;;;;;18.62;70.53;101206.50;1666637;85;21059;-75
2021/07/22 06:33:39;;;;;;;15.20;9.35;;;;;;;18.64;70.51;101208.50;1671999;84;21015;-75
2021/07/22 06:36:05;;;;;;;12.53;8.45;;;;;;;18.67;70.42;101205.39;1668010;84;22173;-75
2021/07/22 06:38:33;;;;;;;12.58;8.70;;;;;;;18.67;70.37;101210.28;1670960;84;21004;-75
2021/07/22 06:40:59;;;;;;;13.25;8.48;;;;;;;18.69;70.35;101210.89;1666956;86;21091;-75
2021/07/22 06:43:27;;;;;;;16.73;10.13;;;;;;;18.71;70.31;101208.00;1667356;86;21023;-75
2021/07/22 06:45:53;;;;;;;13.62;9.35;;;;;;;18.74;70.21;101209.78;1647729;87;21583;-75
2021/07/22 06:48:19;;;;;;;18.75;10.68;;;;;;;18.78;70.17;101208.86;1645652;87;21842;-75
2021/07/22 06:50:45;;;;;;;14.20;8.55;;;;;;;18.83;70.10;101213.12;1662830;84;21027;-75
2021/07/22 06:53:11;;;;;;;22.15;9.88;;;;;;;18.84;70.03;101210.73;1646546;87;21059;-75
2021/07/22 06:55:37;;;;;;;15.20;9.00;;;;;;;18.86;69.98;101210.00;1667568;86;21114;-75
2021/07/22 06:58:08;;;;;;;16.87;9.58;;;;;;;18.86;69.92;101210.00;1648375;87;21012;-75
2021/07/22 07:00:35;;;;;;;14.93;9.43;;;;;;;18.84;69.87;101208.03;1666876;86;21266;-75
2021/07/22 07:03:04;;;;;;;14.00;8.05;;;;;;;18.83;69.82;101210.41;1648125;87;21084;-75
2021/07/22 07:05:31;;;;;;;21.07;9.83;;;;;;;18.84;69.77;101210.22;1664007;86;21507;-75
2021/07/22 07:07:57;;;;;;;13.30;9.40;;;;;;;18.87;69.74;101207.63;1647745;87;21070;-75
2021/07/22 07:10:24;;;;;;;15.65;7.90;;;;;;;18.91;69.70;101212.94;1666127;86;21107;-75
2021/07/22 07:12:50;;;;;;;15.40;9.08;;;;;;;18.97;69.69;101209.41;1648123;87;21140;-74
2021/07/22 07:15:16;;;;;;;11.48;8.25;;;;;;;19.00;69.59;101214.41;1667223;86;21067;-75
2021/07/22 07:17:42;;;;;;;13.28;9.08;;;;;;;19.01;69.54;101210.67;1652897;85;21107;-75
2021/07/22 07:20:09;;;;;;;14.78;9.98;;;;;;;19.03;69.46;101211.83;1647615;85;21039;-76
2021/07/22 07:22:35;;;;;;;15.80;8.65;;;;;;;19.01;69.41;101208.48;1661405;84;21122;-75
2021/07/22 07:25:01;;;;;;;16.30;8.48;;;;;;;18.99;69.33;101204.65;1647693;87;21146;-76
2021/07/22 07:27:27;;;;;;;13.38;8.25;;;;;;;18.98;69.28;101208.89;1666574;86;21021;-75
2021/07/22 07:29:53;;;;;;;10.55;8.30;;;;;;;19.03;69.23;101210.48;1645309;85;21055;-75
2021/07/22 07:32:19;;;;;;;15.60;8.15;;;;;;;19.11;69.17;101210.27;1667819;85;21012;-76
2021/07/22 07:34:45;;;;;;;12.40;8.85;;;;;;;19.12;69.08;101210.06;1662430;86;21472;-75
2021/07/22 07:37:11;;;;;;;14.98;8.90;;;;;;;19.13;69.03;101209.04;1654278;86;21596;-75
2021/07/22 07:39:38;;;;;;;12.93;8.20;;;;;;;19.17;68.98;101208.11;1663612;86;21529;-76
2021/07/22 07:42:04;;;;;;;13.05;8.55;;;;;;;19.19;68.91;101210.07;1663957;86;21099;-75
2021/07/22 07:44:30;;;;;;;15.10;8.20;;;;;;;19.17;68.85;101213.52;1639114;87;21061;-75
2021/07/22 07:46:56;;;;;;;10.28;8.38;;;;;;;19.17;68.77;101215.70;1659353;85;21109;-75
2021/07/22 07:49:22;;;;;;;14.93;9.13;;;;;;;19.18;68.76;101218.70;1652486;86;21232;-75
2021/07/22 07:51:48;;;;;;;18.75;9.30;;;;;;;19.13;68.75;101212.26;1658550;85;21034;-75
2021/07/22 07:54:20;;;;;;;14.87;9.05;;;;;;;19.13;68.72;101211.75;1660800;85;21028;-75
2021/07/22 07:56:47;;;;;;;14.55;9.08;;;;;;;19.09;68.72;101219.11;1629223;85;21099;-76
2021/07/22 07:59:13;;;;;;;14.87;8.70;;;;;;;19.07;68.76;101213.09;1652160;86;21374;-75
2021/07/22 08:01:39;;;;;;;18.02;9.33;;;;;;;19.06;68.77;101212.25;1652095;86;21232;-75
2021/07/22 08:04:05;;;;;;;12.98;8.53;;;;;;;19.06;68.80;101210.90;1651608;86;21086;-76
2021/07/22 08:06:31;;;;;;;11.57;8.70;;;;;;;19.13;68.79;101212.26;1651292;86;21603;-75
2021/07/22 08:08:57;;;;;;;13.95;8.88;;;;;;;19.12;68.81;101211.42;1647230;85;21524;-76
2021/07/22 08:11:23;;;;;;;22.93;14.65;;;;;;;19.17;68.82;101208.11;1652499;86;21035;-76
2021/07/22 08:13:49;;;;;;;19.55;9.95;;;;;;;19.23;68.85;101215.39;1652658;85;21159;-76
2021/07/22 08:16:18;;;;;;;13.28;8.98;;;;;;;19.29;68.85;101216.74;1662900;85;21082;-76
2021/07/22 08:18:46;;;;;;;16.40;9.05;;;;;;;19.29;68.84;101223.50;1650228;85;21039;-76
2021/07/22 08:21:13;;;;;;;13.93;8.75;;;;;;;19.29;68.77;101220.80;1651475;85;21126;-75
2021/07/22 08:23:39;;;;;;;14.70;9.20;;;;;;;19.27;68.75;101218.84;1652037;86;21099;-74
2021/07/22 08:26:06;;;;;;;19.32;10.28;;;;;;;19.32;68.73;101223.09;1652229;85;21164;-75
2021/07/22 08:28:34;;;;;;;14.30;9.23;;;;;;;19.39;68.69;101217.67;1666930;85;21073;-75
2021/07/22 08:31:00;;;;;;;16.62;10.43;;;;;;;19.38;68.63;101218.22;1667160;84;21075;-75
2021/07/22 08:33:26;;;;;;;14.65;9.40;;;;;;;19.41;68.63;101212.42;1671248;84;21084;-76
2021/07/22 08:35:52;;;;;;;12.80;9.68;;;;;;;19.46;68.63;101215.84;1628701;87;21102;-76
2021/07/22 08:38:18;;;;;;;17.17;9.95;;;;;;;19.55;68.60;101213.26;1649527;84;21624;-75
2021/07/22 08:40:44;;;;;;;12.90;8.85;;;;;;;19.67;68.54;101217.49;1662824;85;21057;-76
2021/07/22 08:43:11;;;;;;;14.07;9.35;;;;;;;19.77;68.46;101211.97;1623761;86;21057;-76
2021/07/22 08:45:37;;;;;;;15.32;9.75;;;;;;;19.86;68.37;101213.95;1663008;86;21040;-75
2021/07/22 08:48:04;;;;;;;17.55;9.45;;;;;;;19.93;68.26;101209.36;1636829;86;21153;-75
2021/07/22 08:50:30;;;;;;;15.05;9.10;;;;;;;20.03;68.18;101202.98;1665275;86;21255;-75
2021/07/22 08:52:56;;;;;;;19.30;11.95;;;;;;;20.10;68.05;101203.79;1642965;86;21152;-75
2021/07/22 08:55:22;;;;;;;14.38;8.88;;;;;;;20.14;67.97;101203.69;1633080;87;21098;-75
2021/07/22 08:57:48;;;;;;;10.40;7.97;;;;;;;20.21;67.88;101207.72;1653832;86;21149;-75
2021/07/22 09:00:17;;;;;;;15.35;9.15;;;;;;;20.31;67.76;101204.91;1655739;85;21084;-75
2021/07/22 09:02:43;;;;;;;15.95;9.40;;;;;;;20.44;67.61;101210.27;1673644;85;21264;-75
2021/07/22 09:05:10;;;;;;;17.57;9.53;;;;;;;20.59;67.48;101206.45;1662939;85;21578;-75
2021/07/22 09:07:37;;;;;;;15.35;9.40;;;;;;;20.68;67.34;101203.82;1645986;87;21421;-75
2021/07/22 09:10:11;;;;;;;20.85;10.55;;;;;;;20.84;67.19;101202.78;1645494;87;21057;-75
2021/07/22 09:12:42;;;;;;;15.60;9.50;;;;;;;20.97;66.99;101199.15;1657000;85;21060;-75
2021/07/22 09:15:14;;;;;;;13.10;8.88;;;;;;;20.93;66.81;101197.39;1662637;86;21833;-75
2021/07/22 09:17:41;;;;;;;18.92;10.70;;;;;;;21.01;66.68;101197.66;1668944;84;21138;-76
2021/07/22 09:20:11;;;;;;;14.47;9.18;;;;;;;21.15;66.53;101193.84;1643905;85;21621;-75
2021/07/22 09:22:40;;;;;;;14.38;9.95;;;;;;;21.24;66.33;101197.97;1694882;84;21445;-75
2021/07/22 09:25:10;;;;;;;15.78;10.30;;;;;;;21.31;66.07;101200.11;1677649;84;21046;-74
2021/07/22 09:27:43;;;;;;;17.32;9.18;;;;;;;21.42;65.86;101199.92;1666202;86;21598;-75
2021/07/22 09:30:18;;;;;;;11.93;7.22;;;;;;;21.51;65.63;101199.09;1637571;86;21030;-75
2021/07/22 09:32:48;;;;;;;15.32;8.45;;;;;;;21.62;65.43;101201.92;1666775;84;21439;-75
2021/07/22 09:35:16;;;;;;;12.68;8.38;;;;;;;21.73;65.17;101199.84;1665466;85;21841;-75
2021/07/22 09:37:51;;;;;;;13.68;8.33;;;;;;;21.81;64.82;101196.81;1674801;84;21011;-75
2021/07/22 09:40:20;;;;;;;14.85;8.40;;;;;;;21.83;64.58;101196.61;1649336;85;22254;-75
2021/07/22 09:42:48;;;;;;;12.10;8.93;;;;;;;21.88;64.34;101196.78;1671725;84;21059;-76
2021/07/22 09:45:19;;;;;;;13.78;9.23;;;;;;;21.87;64.12;101193.75;1648454;87;21039;-75
2021/07/22 09:47:46;;;;;;;13.03;8.68;;;;;;;21.85;63.88;101198.56;1667134;84;21067;-75
2021/07/22 09:50:18;;;;;;;15.93;9.35;;;;;;;21.92;63.67;101195.28;1647076;87;21060;-74
2021/07/22 09:52:45;;;;;;;14.60;8.30;;;;;;;22.04;63.56;101193.50;1667129;84;21669;-74
2021/07/22 09:55:30;;;;;;;14.07;8.30;;;;;;;22.17;63.37;101193.34;1648088;85;21538;-78
2021/07/22 09:57:59;;;;;;;15.43;8.53;;;;;;;22.23;63.27;101193.81;1666869;86;21055;-78
2021/07/22 10:00:26;;;;;;;23.83;11.12;;;;;;;22.36;63.14;101192.28;1640937;87;21043;-79
2021/07/22 10:02:54;;;;;;;15.28;7.92;;;;;;;22.40;62.96;101189.42;1668611;84;21438;-78
2021/07/22 10:05:27;;;;;;;21.27;10.78;;;;;;;22.44;62.80;101193.03;1648301;87;21866;-78
2021/07/22 10:07:55;;;;;;;15.80;8.88;;;;;;;22.50;62.61;101185.31;1666600;86;21068;-78
2021/07/22 10:10:26;;;;;;;14.55;8.45;;;;;;;22.51;62.38;101179.66;1653200;85;21080;-78
2021/07/22 10:12:58;;;;;;;14.83;8.83;;;;;;;22.55;62.18;101187.67;1679057;84;21091;-78
2021/07/22 10:15:31;;;;;;;13.53;7.78;;;;;;;22.68;61.95;101182.60;1657217;85;21044;-79
2021/07/22 10:17:58;;;;;;;12.78;8.90;;;;;;;22.80;61.78;101180.73;1665626;83;21758;-80
2021/07/22 10:20:28;;;;;;;14.33;9.03;;;;;;;22.86;61.51;101174.40;1618433;87;21010;-78
2021/07/22 10:22:58;;;;;;;17.85;10.48;;;;;;;22.91;61.29;101175.87;1667452;84;21047;-78
2021/07/22 10:25:24;;;;;;;18.05;9.93;;;;;;;23.01;61.07;101180.22;1673801;84;21199;-76
2021/07/22 10:27:52;;;;;;;12.75;9.60;;;;;;;23.22;60.79;101176.16;1648415;87;21009;-75
2021/07/22 10:30:19;;;;;;;12.10;6.92;;;;;;;23.24;60.52;101172.65;1649529;84;22019;-77
2021/07/22 10:32:56;;;;;;;40.30;23.15;;;;;;;23.24;60.40;101177.56;1666733;85;21136;-78
2021/07/22 10:35:26;;;;;;;18.62;9.58;;;;;;;23.36;60.26;101168.87;1636597;87;21610;-78
2021/07/22 10:38:11;;;;;;;9.90;7.37;;;;;;;23.50;60.01;101170.06;1645731;85;21028;-77
2021/07/22 10:40:52;;;;;;;13.83;7.87;;;;;;;23.67;59.80;101169.64;1615395;87;21539;-78
2021/07/22 10:43:43;;;;;;;11.95;7.67;;;;;;;23.62;59.46;101172.23;1647754;87;22525;-78
2021/07/22 10:46:11;;;;;;;11.50;7.70;;;;;;;23.57;59.23;101171.61;1647540;87;21032;-78
2021/07/22 10:48:38;;;;;;;16.30;7.35;;;;;;;23.68;59.01;101168.59;1648275;87;21317;-78
2021/07/22 10:51:08;;;;;;;16.10;9.05;;;;;;;23.79;58.77;101169.09;1648321;87;21051;-78
2021/07/22 10:53:50;;;;;;;13.20;8.50;;;;;;;23.88;58.62;101163.06;1647928;87;21008;-78
2021/07/22 10:56:26;;;;;;;13.60;7.80;;;;;;;24.01;58.40;101159.23;1648369;87;22041;-78
2021/07/22 10:58:54;;;;;;;9.75;7.97;;;;;;;24.11;58.03;101158.09;1653606;85;21624;-79
2021/07/22 11:01:45;;;;;;;13.32;8.38;;;;;;;24.20;57.82;101152.61;1648369;85;21094;-78
2021/07/22 11:04:38;;;;;;;17.02;8.60;;;;;;;24.28;57.55;101157.66;1647187;87;21028;-78
2021/07/22 11:07:07;;;;;;;10.50;7.83;;;;;;;24.22;57.22;101154.55;1648386;86;21091;-78
2021/07/22 11:09:48;;;;;;;10.63;8.68;;;;;;;24.25;56.89;101151.33;1653009;86;22026;-78
2021/07/22 11:12:39;;;;;;;10.90;8.10;;;;;;;24.29;56.66;101149.78;1663394;86;20894;-77
2021/07/22 11:15:07;;;;;;;10.93;7.97;;;;;;;24.40;56.64;101147.26;1621991;88;21039;-78